Latest Weather Observations for Hervey Bay

IDQ60801

Issued at 7:02 am EST Saturday 10 December 2016 (issued every 30 minutes, with the page automatically refreshed every 10 minutes)

About weather observations | Map of weather stations | Latest weather observations for QLD | Other Formats
Station Details ID: 040405 Name: HERVEY BAY AIRPORT Lat: -25.32 Lon: 152.88 Height: 12.98 m
Data from the previous 72 hours. | See also: Recent months at Hervey Bay
Date/Time
EST
Temp
°C
App
Temp
°C
Dew
Point
°C
Rel
Hum
%
Delta-T
°C
Wind Press
QNH
hPa
Press
MSL
hPa
Rain since
9am
mm
Dir  Spd
km/h
Gust
km/h
Spd
kts
Gust
kts
10/06:30am 24.1 26.2 21.0 83 2.0 S 11 15 6 8 1015.9 1015.8 0.6
10/06:00am 23.6 24.8 20.7 84 1.9 SSE 15 20 8 11 1015.4 1015.3 0.6
10/05:30am 23.3 25.6 21.4 89 1.3 S 11 17 6 9 1015.0 1014.9 0.6
10/05:00am 23.1 26.1 21.9 93 0.8 S 9 15 5 8 1014.6 1014.5 0.6
10/04:30am 22.9 26.0 21.5 92 0.9 SSW 7 11 4 6 1014.1 1014.0 0.6
10/04:00am 23.0 26.2 21.6 92 0.9 S 7 9 4 5 1013.7 1013.6 0.6
10/03:30am 23.1 26.3 21.7 92 0.9 SSW 7 11 4 6 1013.5 1013.4 0.6
10/03:00am 23.3 26.3 21.9 92 0.9 SW 9 11 5 6 1013.4 1013.3 0.6
10/02:30am 23.2 26.6 21.6 91 1.1 S 6 9 3 5 1013.1 1013.0 0.6
10/02:00am 23.4 26.8 22.0 92 0.9 SW 7 11 4 6 1013.2 1013.1 0.6
10/01:30am 23.3 27.6 21.9 92 0.9 SW 2 9 1 5 1013.2 1013.1 0.6
10/01:00am 23.2 27.7 21.6 91 1.1 CALM 0 0 0 0 1013.1 1013.0 0.6
10/12:30am 23.7 28.5 22.1 91 1.1 CALM 0 0 0 0 1013.2 1013.1 0.6
10/12:00am 23.6 27.9 21.9 90 1.1 SSE 2 7 1 4 1013.1 1013.0 0.6
 
Date/Time
EST
Temp
°C
App
Temp
°C
Dew
Point
°C
Rel
Hum
%
Delta-T
°C
Wind Press
QNH
hPa
Press
MSL
hPa
Rain since
9am
mm
Dir  Spd
km/h
Gust
km/h
Spd
kts
Gust
kts
09/11:30pm 23.9 28.0 22.2 90 1.1 WSW 4 7 2 4 1013.5 1013.4 0.6
09/11:00pm 24.3 29.4 22.6 90 1.1 CALM 0 0 0 0 1013.7 1013.6 0.6
09/10:30pm 24.1 28.9 22.2 89 1.3 CALM 0 0 0 0 1014.1 1014.0 0.6
09/10:00pm 24.2 29.1 22.3 89 1.3 CALM 0 0 0 0 1014.1 1014.0 0.6
09/09:30pm 24.2 28.3 22.3 89 1.3 SW 4 7 2 4 1013.9 1013.8 0.6
09/09:00pm 24.7 28.7 22.0 85 1.8 E 4 7 2 4 1013.4 1013.3 0.6
09/08:30pm 25.1 28.7 22.4 85 1.8 NE 7 9 4 5 1013.2 1013.1 0.6
09/08:00pm 24.7 28.2 21.8 84 1.9 ESE 6 7 3 4 1013.0 1012.9 0.6
09/07:30pm 24.7 29.5 22.2 86 1.7 CALM 0 2 0 1 1012.7 1012.6 0.6
09/07:00pm 25.0 30.1 22.7 87 1.6 CALM 0 4 0 2 1012.3 1012.2 0.6
09/06:30pm 25.0 28.7 22.3 85 1.8 SSE 6 7 3 4 1011.9 1011.8 0.6
09/06:00pm 25.3 28.9 22.4 84 1.9 SE 7 11 4 6 1011.3 1011.2 0.6
09/05:30pm 27.2 29.4 20.5 67 4.4 SSE 9 13 5 7 1011.1 1011.0 0.0
09/05:00pm 28.2 29.8 19.2 58 5.8 SSE 9 13 5 7 1010.8 1010.7 0.0
09/04:30pm 28.4 30.1 20.9 64 5.0 S 13 20 7 11 1010.5 1010.4 0.0
09/04:00pm 29.0 30.2 19.0 54 6.5 S 11 15 6 8 1010.2 1010.1 0.0
09/03:30pm 28.7 29.4 18.8 55 6.4 SSW 13 19 7 10 1009.9 1009.8 0.0
09/03:00pm 29.4 30.9 19.7 56 6.4 SSW 11 17 6 9 1009.8 1009.7 0.0
09/02:30pm 30.0 31.5 19.7 54 6.7 SW 11 15 6 8 1009.6 1009.5 0.0
09/02:00pm 29.1 32.6 22.8 69 4.3 N 9 13 5 7 1009.7 1009.6 0.0
09/01:30pm 29.2 32.3 22.9 69 4.3 N 11 17 6 9 1010.1 1010.0 0.0
09/01:00pm 29.1 30.8 22.3 66 4.6 NNE 17 22 9 12 1009.9 1009.8 0.0
09/12:30pm 32.1 32.7 17.6 42 9.3 WSW 11 17 6 9 1009.7 1009.6 0.0
09/12:00pm 32.4 32.3 17.8 41 9.4 SW 15 24 8 13 1009.8 1009.7 0.0
09/11:30am 31.8 34.0 20.4 51 7.6 WSW 9 17 5 9 1010.0 1009.9 0.0
09/11:00am 31.7 33.9 19.7 49 7.9 SSW 7 13 4 7 1010.3 1010.2 0.0
09/10:30am 31.0 32.2 20.0 52 7.3 WSW 13 20 7 11 1010.4 1010.3 0.0
09/10:00am 30.9 32.1 19.9 52 7.3 WSW 13 24 7 13 1010.6 1010.5 0.0
09/09:30am 30.3 31.2 20.8 56 6.3 WSW 17 24 9 13 1010.8 1010.7 0.0
09/09:00am 29.5 31.0 21.2 61 5.5 SW 15 24 8 13 1011.1 1011.0 1.6
09/08:30am 28.3 29.7 21.8 68 4.4 WSW 17 24 9 13 1011.4 1011.3 1.4
09/08:00am 27.8 29.7 22.1 71 3.8 WNW 15 22 8 12 1011.5 1011.4 1.4
09/07:30am 26.6 29.0 22.2 77 3.0 WNW 13 20 7 11 1011.8 1011.7 1.4
09/07:00am 26.4 28.1 22.3 78 2.8 NW 17 24 9 13 1011.6 1011.5 1.4
09/06:30am 25.5 29.0 22.8 85 1.8 WNW 9 15 5 8 1011.4 1011.3 1.4
09/06:00am 24.2 27.9 22.3 89 1.3 W 6 9 3 5 1011.1 1011.0 1.4
09/05:30am 23.6 26.9 21.9 90 1.1 WNW 7 9 4 5 1010.7 1010.6 1.4
09/05:00am 24.0 27.6 22.4 91 1.1 NNW 7 11 4 6 1010.4 1010.3 1.4
09/04:30am 23.2 26.4 21.3 89 1.2 NW 6 7 3 4 1010.1 1010.0 1.4
09/04:00am 23.2 25.9 21.3 89 1.2 N 9 13 5 7 1009.6 1009.5 1.4
09/03:30am 22.3 26.4 20.8 91 1.0 CALM 0 0 0 0 1009.7 1009.6 1.4
09/03:00am 22.2 26.2 20.5 90 1.1 CALM 0 0 0 0 1009.9 1009.8 1.4
09/02:30am 21.6 25.3 19.9 90 1.1 CALM 0 0 0 0 1010.2 1010.1 1.4
09/02:00am 22.1 25.5 20.2 89 1.2 NNW 2 6 1 3 1010.6 1010.5 1.2
09/01:31am 21.4 23.6 19.5 89 1.2 WNW 7 9 4 5 1011.2 1011.1 1.2
09/01:30am 21.4 23.6 19.5 89 1.2 WNW 7 9 4 5 1011.2 1011.1 1.2
09/01:14am 21.4 22.5 19.7 90 1.1 WSW 13 17 7 9 1011.5 1011.4 0.8
09/01:00am 21.4 22.4 19.5 89 1.2 WSW 13 15 7 8 1011.8 1011.7 0.4
09/12:30am 22.9 22.1 19.3 80 2.3 WSW 22 35 12 19 1012.5 1012.4 0.0
09/12:00am 25.0 27.5 21.7 82 2.2 WSW 11 13 6 7 1012.2 1012.1 0.0
 
Date/Time
EST
Temp
°C
App
Temp
°C
Dew
Point
°C
Rel
Hum
%
Delta-T
°C
Wind Press
QNH
hPa
Press
MSL
hPa
Rain since
9am
mm
Dir  Spd
km/h
Gust
km/h
Spd
kts
Gust
kts
08/11:30pm 26.0 28.7 21.4 76 3.1 WNW 9 17 5 9 1012.3 1012.2 0.0
08/11:00pm 26.3 28.2 21.3 74 3.3 NW 13 20 7 11 1012.3 1012.2 0.0
08/10:30pm 26.4 27.2 21.4 74 3.3 NNW 19 32 10 17 1011.8 1011.7 0.0
08/10:00pm 26.4 27.0 21.4 74 3.3 NNW 20 33 11 18 1011.2 1011.1 0.0
08/09:30pm 26.4 26.5 21.2 73 3.4 N 22 33 12 18 1010.9 1010.8 0.0
08/09:00pm 26.4 27.1 21.2 73 3.4 NNW 19 28 10 15 1010.9 1010.8 0.0
08/08:30pm 26.4 26.5 21.2 73 3.4 N 22 33 12 18 1010.6 1010.5 0.0
08/08:00pm 26.2 27.3 21.2 74 3.3 N 17 26 9 14 1010.4 1010.3 0.0
08/07:30pm 26.1 26.6 20.9 73 3.4 N 19 30 10 16 1009.9 1009.8 0.0
08/07:00pm 26.2 26.2 21.0 73 3.4 N 22 33 12 18 1009.6 1009.5 0.0
08/06:30pm 26.3 26.6 20.8 71 3.6 N 20 30 11 16 1009.2 1009.1 0.0
08/06:00pm 26.5 26.3 20.6 70 3.9 N 22 33 12 18 1008.9 1008.8 0.0
08/05:30pm 27.0 26.8 20.6 68 4.2 N 22 37 12 20 1008.8 1008.7 0.0
08/05:00pm 27.5 26.9 20.6 66 4.6 N 24 32 13 17 1008.6 1008.5 0.0
08/04:30pm 27.9 26.9 20.5 64 4.9 N 26 37 14 20 1008.5 1008.4 0.0
08/04:00pm 27.0 26.3 20.3 66 4.4 N 24 37 13 20 1008.7 1008.6 0.0
08/03:30pm 27.8 27.2 20.6 65 4.7 N 24 35 13 19 1009.1 1009.0 0.0
08/03:00pm 29.3 29.1 21.3 62 5.4 NNE 24 35 13 19 1009.3 1009.2 0.0
08/02:30pm 27.8 26.2 19.3 60 5.5 N 26 37 14 20 1009.7 1009.6 0.0
08/02:00pm 28.1 27.9 20.6 63 5.0 N 22 35 12 19 1010.2 1010.1 0.0
08/01:30pm 28.1 27.5 20.6 63 4.9 N 24 32 13 17 1010.4 1010.3 0.0
08/01:00pm 28.7 28.6 20.7 62 5.3 N 22 30 12 16 1011.1 1011.0 0.0
08/12:30pm 29.5 28.9 20.6 58 5.9 N 24 32 13 17 1011.3 1011.2 0.0
08/12:00pm 29.0 28.3 20.2 59 5.8 NNW 24 35 13 19 1011.7 1011.6 0.0
08/11:30am 30.0 30.6 21.4 60 5.8 N 20 33 11 18 1012.0 1011.9 0.0
08/11:00am 28.5 28.1 20.2 60 5.5 NNW 22 33 12 18 1011.9 1011.8 0.0
08/10:30am 28.8 28.7 20.0 59 5.8 N 20 28 11 15 1012.1 1012.0 0.0
08/10:00am 28.9 29.4 21.1 62 5.2 N 20 30 11 16 1012.1 1012.0 0.0
08/09:30am 27.4 27.3 20.0 64 4.8 N 20 28 11 15 1012.3 1012.2 0.0
08/09:00am 28.0 28.4 20.6 64 4.9 N 19 26 10 14 1012.6 1012.5 0.0
08/08:30am 27.4 27.6 20.2 65 4.7 NNE 19 30 10 16 1012.4 1012.3 0.0
08/08:00am 26.9 27.2 20.3 67 4.3 NNE 19 32 10 17 1012.5 1012.4 0.0
08/07:30am 27.3 28.7 21.1 69 4.1 N 15 24 8 13 1012.4 1012.3 0.0
08/07:00am 27.0 27.5 20.1 66 4.5 N 17 20 9 11 1012.4 1012.3 0.0
08/06:30am 26.7 28.2 20.5 69 4.1 N 13 20 7 11 1012.4 1012.3 0.0
08/06:00am 26.4 27.8 20.3 69 4.0 N 13 19 7 10 1012.2 1012.1 0.0
08/05:30am 25.5 28.3 20.5 74 3.3 NNE 6 9 3 5 1012.1 1012.0 0.0
08/05:00am 25.0 27.6 20.5 76 2.9 N 7 11 4 6 1011.9 1011.8 0.0
08/04:30am 25.0 26.5 20.5 76 2.9 N 13 17 7 9 1011.6 1011.5 0.0
08/04:00am 25.0 27.0 20.7 77 2.8 N 11 17 6 9 1011.6 1011.5 0.0
08/03:30am 25.2 28.0 20.9 77 2.8 N 7 13 4 7 1011.8 1011.7 0.0
08/03:00am 25.2 27.9 20.7 76 3.0 N 7 11 4 6 1011.8 1011.7 0.0
08/02:30am 25.2 28.1 20.7 76 2.9 N 6 9 3 5 1011.9 1011.8 0.0
08/02:00am 25.5 27.8 20.7 75 3.1 NNW 9 13 5 7 1012.1 1012.0 0.0
08/01:30am 25.5 27.6 21.0 76 3.0 N 11 17 6 9 1012.1 1012.0 0.0
08/01:00am 25.6 28.1 21.1 76 3.0 NNW 9 13 5 7 1012.6 1012.5 0.0
08/12:30am 25.6 28.0 20.8 75 3.2 NNW 9 13 5 7 1013.1 1013.0 0.0
08/12:00am 25.8 28.2 20.8 74 3.3 NW 9 15 5 8 1013.6 1013.5 0.0
 
Date/Time
EST
Temp
°C
App
Temp
°C
Dew
Point
°C
Rel
Hum
%
Delta-T
°C
Wind Press
QNH
hPa
Press
MSL
hPa
Rain since
9am
mm
Dir  Spd
km/h
Gust
km/h
Spd
kts
Gust
kts
07/11:30pm 25.9 27.6 20.9 74 3.3 NNW 13 20 7 11 1013.5 1013.4 0.0
07/11:00pm 25.8 27.1 20.8 74 3.3 N 15 20 8 11 1013.3 1013.2 0.0
07/10:30pm 25.8 27.1 20.8 74 3.3 N 15 22 8 12 1013.6 1013.5 0.0
07/10:00pm 25.9 27.7 21.1 75 3.2 NNW 13 20 7 11 1013.6 1013.5 0.0
07/09:30pm 25.9 27.6 20.9 74 3.3 N 13 20 7 11 1013.4 1013.3 0.0
07/09:00pm 25.8 27.1 20.8 74 3.3 N 15 20 8 11 1013.4 1013.3 0.0
07/08:30pm 25.8 27.1 20.8 74 3.3 N 15 22 8 12 1013.2 1013.1 0.0
07/08:00pm 25.8 27.1 20.8 74 3.3 N 15 20 8 11 1013.2 1013.1 0.0
07/07:30pm 25.9 27.5 20.7 73 3.4 N 13 20 7 11 1013.3 1013.2 0.0
07/07:00pm 26.0 27.8 20.3 71 3.7 N 11 19 6 10 1013.6 1013.5 0.0
07/06:30pm 26.0 27.0 20.3 71 3.7 N 15 22 8 12 1012.8 1012.7 0.0
07/06:00pm 26.2 27.3 20.5 71 3.7 N 15 26 8 14 1012.5 1012.4 0.0
07/05:30pm 26.4 26.5 20.3 69 4.0 N 20 30 11 16 1011.8 1011.7 0.0
07/05:00pm 26.8 26.4 20.2 67 4.3 N 22 33 12 18 1011.0 1010.9 0.0
07/04:30pm 27.1 26.4 20.2 66 4.5 N 24 35 13 19 1010.7 1010.6 0.0
07/04:00pm 27.2 26.9 20.3 66 4.5 N 22 32 12 17 1011.2 1011.1 0.0
07/03:30pm 27.3 26.4 19.9 64 4.8 N 24 33 13 18 1011.4 1011.3 0.0
07/03:00pm 28.5 27.5 20.5 62 5.3 N 26 37 14 20 1011.6 1011.5 0.0
07/02:30pm 27.8 27.8 20.1 63 5.0 N 20 30 11 16 1011.7 1011.6 0.0
07/02:00pm 28.0 28.0 19.8 61 5.4 N 19 32 10 17 1011.8 1011.7 0.0
07/01:30pm 27.9 26.9 19.7 61 5.3 NNW 24 32 13 17 1011.9 1011.8 0.0
07/01:00pm 28.4 27.6 19.3 57 5.9 N 22 30 12 16 1012.3 1012.2 0.0
07/12:30pm 27.5 26.8 19.6 62 5.1 N 22 30 12 16 1012.8 1012.7 0.0
07/12:00pm 28.4 26.8 19.3 57 5.9 N 26 33 14 18 1013.0 1012.9 0.0
07/11:30am 28.9 27.8 19.5 57 6.1 N 24 35 13 19 1013.0 1012.9 0.0
07/11:00am 28.9 29.0 20.4 60 5.6 N 20 32 11 17 1013.6 1013.5 0.0
07/10:30am 28.5 28.1 20.2 60 5.5 N 22 32 12 17 1013.8 1013.7 0.0
07/10:00am 28.4 28.1 19.6 59 5.7 N 20 30 11 16 1014.2 1014.1 0.0
07/09:30am 28.0 27.7 19.5 60 5.5 N 20 30 11 16 1014.8 1014.7 0.0
07/09:00am 28.3 28.2 18.7 56 6.2 N 17 24 9 13 1015.0 1014.9 0.0
07/08:30am 27.3 27.4 19.1 61 5.3 NNW 17 24 9 13 1015.0 1014.9 0.0
07/08:00am 27.3 27.4 19.1 61 5.3 NNW 17 24 9 13 1014.7 1014.6 0.0
07/07:30am 27.2 27.7 19.3 62 5.1 NW 15 20 8 11 1015.0 1014.9 0.0

Other Formats:

Comma delimited format used in spreadsheet applications
http://www.bom.gov.au/fwo/IDQ60801/IDQ60801.95565.axf

JavaScript Object Notation format (JSON) in row-major order
http://www.bom.gov.au/fwo/IDQ60801/IDQ60801.95565.json